sensor_id;sensor_type;location;lat;lon;timestamp;P1;durP1;ratioP1;P2;durP2;ratioP2
64907;SDS011;51412;52.236;5.188;2022-07-19T00:01:49;15.70;;;9.55;;
64907;SDS011;51412;52.236;5.188;2022-07-19T00:04:15;13.10;;;9.55;;
64907;SDS011;51412;52.236;5.188;2022-07-19T00:06:42;15.35;;;8.55;;
64907;SDS011;51412;52.236;5.188;2022-07-19T00:09:08;15.23;;;8.95;;
64907;SDS011;51412;52.236;5.188;2022-07-19T00:11:35;11.98;;;9.15;;
64907;SDS011;51412;52.236;5.188;2022-07-19T00:14:01;12.70;;;8.68;;
64907;SDS011;51412;52.236;5.188;2022-07-19T00:16:29;18.30;;;9.98;;
64907;SDS011;51412;52.236;5.188;2022-07-19T00:18:56;17.05;;;9.52;;
64907;SDS011;51412;52.236;5.188;2022-07-19T00:21:22;11.27;;;8.38;;
64907;SDS011;51412;52.236;5.188;2022-07-19T00:23:49;14.48;;;9.00;;
64907;SDS011;51412;52.236;5.188;2022-07-19T00:26:15;10.65;;;9.10;;
64907;SDS011;51412;52.236;5.188;2022-07-19T00:28:42;11.90;;;8.93;;
64907;SDS011;51412;52.236;5.188;2022-07-19T00:31:08;10.27;;;8.35;;
64907;SDS011;51412;52.236;5.188;2022-07-19T00:33:36;13.20;;;9.27;;
64907;SDS011;51412;52.236;5.188;2022-07-19T00:36:02;12.48;;;8.45;;
64907;SDS011;51412;52.236;5.188;2022-07-19T00:38:29;14.55;;;8.73;;
64907;SDS011;51412;52.236;5.188;2022-07-19T00:40:56;15.10;;;8.52;;
64907;SDS011;51412;52.236;5.188;2022-07-19T00:43:22;15.02;;;8.73;;
64907;SDS011;51412;52.236;5.188;2022-07-19T00:45:49;11.48;;;8.07;;
64907;SDS011;51412;52.236;5.188;2022-07-19T00:48:15;10.48;;;7.65;;
64907;SDS011;51412;52.236;5.188;2022-07-19T00:50:43;14.07;;;8.18;;
64907;SDS011;51412;52.236;5.188;2022-07-19T00:53:10;11.13;;;7.75;;
64907;SDS011;51412;52.236;5.188;2022-07-19T00:55:37;14.68;;;8.55;;
64907;SDS011;51412;52.236;5.188;2022-07-19T00:58:06;13.43;;;8.20;;
64907;SDS011;51412;52.236;5.188;2022-07-19T01:00:34;14.52;;;7.93;;
64907;SDS011;51412;52.236;5.188;2022-07-19T01:03:01;15.65;;;8.57;;
64907;SDS011;51412;52.236;5.188;2022-07-19T01:05:28;11.90;;;8.35;;
64907;SDS011;51412;52.236;5.188;2022-07-19T01:07:56;12.82;;;8.77;;
64907;SDS011;51412;52.236;5.188;2022-07-19T01:10:23;11.85;;;8.57;;
64907;SDS011;51412;52.236;5.188;2022-07-19T01:12:49;16.77;;;8.77;;
64907;SDS011;51412;52.236;5.188;2022-07-19T01:15:17;11.63;;;8.70;;
64907;SDS011;51412;52.236;5.188;2022-07-19T01:17:44;10.60;;;7.90;;
64907;SDS011;51412;52.236;5.188;2022-07-19T01:20:12;11.40;;;7.65;;
64907;SDS011;51412;52.236;5.188;2022-07-19T01:22:40;12.13;;;7.50;;
64907;SDS011;51412;52.236;5.188;2022-07-19T01:25:08;11.68;;;8.25;;
64907;SDS011;51412;52.236;5.188;2022-07-19T01:27:37;12.45;;;8.70;;
64907;SDS011;51412;52.236;5.188;2022-07-19T01:30:09;10.02;;;7.88;;
64907;SDS011;51412;52.236;5.188;2022-07-19T01:32:37;11.98;;;8.05;;
64907;SDS011;51412;52.236;5.188;2022-07-19T01:35:04;9.68;;;7.93;;
64907;SDS011;51412;52.236;5.188;2022-07-19T01:37:31;14.05;;;8.05;;
64907;SDS011;51412;52.236;5.188;2022-07-19T01:39:59;13.73;;;8.38;;
64907;SDS011;51412;52.236;5.188;2022-07-19T01:42:26;15.05;;;8.05;;
64907;SDS011;51412;52.236;5.188;2022-07-19T01:44:52;9.88;;;7.85;;
64907;SDS011;51412;52.236;5.188;2022-07-19T01:47:18;10.88;;;8.73;;
64907;SDS011;51412;52.236;5.188;2022-07-19T01:49:45;13.00;;;8.73;;
64907;SDS011;51412;52.236;5.188;2022-07-19T01:52:11;14.75;;;8.68;;
64907;SDS011;51412;52.236;5.188;2022-07-19T01:54:38;17.77;;;9.07;;
64907;SDS011;51412;52.236;5.188;2022-07-19T01:57:06;13.88;;;8.27;;
64907;SDS011;51412;52.236;5.188;2022-07-19T01:59:32;11.23;;;8.35;;
64907;SDS011;51412;52.236;5.188;2022-07-19T02:02:02;12.25;;;8.98;;
64907;SDS011;51412;52.236;5.188;2022-07-19T02:04:29;10.88;;;8.65;;
64907;SDS011;51412;52.236;5.188;2022-07-19T02:06:55;13.75;;;8.43;;
64907;SDS011;51412;52.236;5.188;2022-07-19T02:09:22;15.93;;;9.18;;
64907;SDS011;51412;52.236;5.188;2022-07-19T02:11:48;11.93;;;9.07;;
64907;SDS011;51412;52.236;5.188;2022-07-19T02:14:16;12.82;;;9.35;;
64907;SDS011;51412;52.236;5.188;2022-07-19T02:16:43;12.10;;;9.48;;
64907;SDS011;51412;52.236;5.188;2022-07-19T02:19:10;14.20;;;9.18;;
64907;SDS011;51412;52.236;5.188;2022-07-19T02:21:37;14.70;;;9.38;;
64907;SDS011;51412;52.236;5.188;2022-07-19T02:24:05;15.00;;;10.05;;
64907;SDS011;51412;52.236;5.188;2022-07-19T02:26:33;14.00;;;9.80;;
64907;SDS011;51412;52.236;5.188;2022-07-19T02:29:00;16.00;;;9.13;;
64907;SDS011;51412;52.236;5.188;2022-07-19T02:31:28;14.65;;;10.07;;
64907;SDS011;51412;52.236;5.188;2022-07-19T02:33:55;13.55;;;9.23;;
64907;SDS011;51412;52.236;5.188;2022-07-19T02:36:21;19.88;;;10.13;;
64907;SDS011;51412;52.236;5.188;2022-07-19T02:38:48;13.65;;;9.52;;
64907;SDS011;51412;52.236;5.188;2022-07-19T02:41:15;11.13;;;9.10;;
64907;SDS011;51412;52.236;5.188;2022-07-19T02:43:42;15.05;;;9.90;;
64907;SDS011;51412;52.236;5.188;2022-07-19T02:46:09;15.70;;;10.55;;
64907;SDS011;51412;52.236;5.188;2022-07-19T02:48:37;12.40;;;9.60;;
64907;SDS011;51412;52.236;5.188;2022-07-19T02:51:03;15.68;;;9.45;;
64907;SDS011;51412;52.236;5.188;2022-07-19T02:53:30;13.27;;;9.18;;
64907;SDS011;51412;52.236;5.188;2022-07-19T02:55:56;12.00;;;8.90;;
64907;SDS011;51412;52.236;5.188;2022-07-19T02:58:23;10.98;;;8.73;;
64907;SDS011;51412;52.236;5.188;2022-07-19T03:00:49;11.40;;;9.05;;
64907;SDS011;51412;52.236;5.188;2022-07-19T03:03:16;11.68;;;8.38;;
64907;SDS011;51412;52.236;5.188;2022-07-19T03:06:01;11.20;;;8.48;;
64907;SDS011;51412;52.236;5.188;2022-07-19T03:08:28;13.07;;;8.85;;
64907;SDS011;51412;52.236;5.188;2022-07-19T03:10:54;10.82;;;8.82;;
64907;SDS011;51412;52.236;5.188;2022-07-19T03:13:21;10.73;;;8.02;;
64907;SDS011;51412;52.236;5.188;2022-07-19T03:15:47;12.43;;;8.55;;
64907;SDS011;51412;52.236;5.188;2022-07-19T03:18:14;13.85;;;8.23;;
64907;SDS011;51412;52.236;5.188;2022-07-19T03:20:41;12.25;;;8.45;;
64907;SDS011;51412;52.236;5.188;2022-07-19T03:23:08;12.85;;;9.02;;
64907;SDS011;51412;52.236;5.188;2022-07-19T03:25:35;13.77;;;7.82;;
64907;SDS011;51412;52.236;5.188;2022-07-19T03:28:01;12.30;;;8.25;;
64907;SDS011;51412;52.236;5.188;2022-07-19T03:30:28;10.60;;;8.00;;
64907;SDS011;51412;52.236;5.188;2022-07-19T03:32:56;15.68;;;8.90;;
64907;SDS011;51412;52.236;5.188;2022-07-19T03:35:23;15.40;;;8.63;;
64907;SDS011;51412;52.236;5.188;2022-07-19T03:37:50;9.50;;;8.18;;
64907;SDS011;51412;52.236;5.188;2022-07-19T03:40:18;13.25;;;9.07;;
64907;SDS011;51412;52.236;5.188;2022-07-19T03:42:45;11.82;;;8.60;;
64907;SDS011;51412;52.236;5.188;2022-07-19T03:45:11;12.50;;;8.68;;
64907;SDS011;51412;52.236;5.188;2022-07-19T03:47:38;13.13;;;9.65;;
64907;SDS011;51412;52.236;5.188;2022-07-19T03:50:05;12.40;;;9.88;;
64907;SDS011;51412;52.236;5.188;2022-07-19T03:52:32;13.90;;;8.93;;
64907;SDS011;51412;52.236;5.188;2022-07-19T03:55:00;16.58;;;9.45;;
64907;SDS011;51412;52.236;5.188;2022-07-19T03:57:28;14.80;;;9.88;;
64907;SDS011;51412;52.236;5.188;2022-07-19T03:59:56;17.20;;;9.52;;
64907;SDS011;51412;52.236;5.188;2022-07-19T04:02:22;12.85;;;9.32;;
64907;SDS011;51412;52.236;5.188;2022-07-19T04:04:49;17.92;;;10.70;;
64907;SDS011;51412;52.236;5.188;2022-07-19T04:07:15;18.98;;;10.00;;
64907;SDS011;51412;52.236;5.188;2022-07-19T04:09:42;21.92;;;10.98;;
64907;SDS011;51412;52.236;5.188;2022-07-19T04:12:08;17.95;;;10.55;;
64907;SDS011;51412;52.236;5.188;2022-07-19T04:14:36;14.70;;;10.93;;
64907;SDS011;51412;52.236;5.188;2022-07-19T04:17:02;16.60;;;10.93;;
64907;SDS011;51412;52.236;5.188;2022-07-19T04:19:29;14.68;;;11.52;;
64907;SDS011;51412;52.236;5.188;2022-07-19T04:21:56;13.50;;;10.57;;
64907;SDS011;51412;52.236;5.188;2022-07-19T04:24:22;17.13;;;11.40;;
64907;SDS011;51412;52.236;5.188;2022-07-19T04:26:49;14.48;;;11.90;;
64907;SDS011;51412;52.236;5.188;2022-07-19T04:29:15;17.30;;;11.63;;
64907;SDS011;51412;52.236;5.188;2022-07-19T04:31:43;13.73;;;11.52;;
64907;SDS011;51412;52.236;5.188;2022-07-19T04:34:09;14.18;;;11.52;;
64907;SDS011;51412;52.236;5.188;2022-07-19T04:36:36;17.15;;;12.10;;
64907;SDS011;51412;52.236;5.188;2022-07-19T04:39:02;13.90;;;11.45;;
64907;SDS011;51412;52.236;5.188;2022-07-19T04:41:29;15.20;;;11.88;;
64907;SDS011;51412;52.236;5.188;2022-07-19T04:43:56;17.30;;;11.93;;
64907;SDS011;51412;52.236;5.188;2022-07-19T04:46:22;13.70;;;11.73;;
64907;SDS011;51412;52.236;5.188;2022-07-19T04:48:50;17.52;;;11.95;;
64907;SDS011;51412;52.236;5.188;2022-07-19T04:51:16;17.30;;;11.48;;
64907;SDS011;51412;52.236;5.188;2022-07-19T04:53:43;19.95;;;12.57;;
64907;SDS011;51412;52.236;5.188;2022-07-19T04:56:09;27.95;;;12.68;;
64907;SDS011;51412;52.236;5.188;2022-07-19T04:58:36;16.27;;;11.80;;
64907;SDS011;51412;52.236;5.188;2022-07-19T05:01:02;15.38;;;12.48;;
64907;SDS011;51412;52.236;5.188;2022-07-19T05:03:29;15.98;;;12.20;;
64907;SDS011;51412;52.236;5.188;2022-07-19T05:05:57;18.10;;;12.18;;
64907;SDS011;51412;52.236;5.188;2022-07-19T05:08:23;18.27;;;12.70;;
64907;SDS011;51412;52.236;5.188;2022-07-19T05:10:50;19.67;;;13.35;;
64907;SDS011;51412;52.236;5.188;2022-07-19T05:13:16;16.88;;;12.00;;
64907;SDS011;51412;52.236;5.188;2022-07-19T05:15:43;18.15;;;12.85;;
64907;SDS011;51412;52.236;5.188;2022-07-19T05:18:09;13.77;;;12.27;;
64907;SDS011;51412;52.236;5.188;2022-07-19T05:20:36;16.63;;;12.65;;
64907;SDS011;51412;52.236;5.188;2022-07-19T05:23:05;14.65;;;12.50;;
64907;SDS011;51412;52.236;5.188;2022-07-19T05:25:32;16.75;;;12.65;;
64907;SDS011;51412;52.236;5.188;2022-07-19T05:27:59;15.23;;;12.82;;
64907;SDS011;51412;52.236;5.188;2022-07-19T05:30:25;20.00;;;12.43;;
64907;SDS011;51412;52.236;5.188;2022-07-19T05:32:52;16.33;;;12.57;;
64907;SDS011;51412;52.236;5.188;2022-07-19T05:35:18;20.90;;;12.35;;
64907;SDS011;51412;52.236;5.188;2022-07-19T05:37:45;17.88;;;12.35;;
64907;SDS011;51412;52.236;5.188;2022-07-19T05:40:13;17.85;;;13.05;;
64907;SDS011;51412;52.236;5.188;2022-07-19T05:42:39;14.93;;;11.88;;
64907;SDS011;51412;52.236;5.188;2022-07-19T05:45:06;17.10;;;12.15;;
64907;SDS011;51412;52.236;5.188;2022-07-19T05:47:36;20.00;;;12.88;;
64907;SDS011;51412;52.236;5.188;2022-07-19T05:50:03;15.80;;;11.85;;
64907;SDS011;51412;52.236;5.188;2022-07-19T05:52:30;17.50;;;13.57;;
64907;SDS011;51412;52.236;5.188;2022-07-19T05:54:57;20.98;;;13.20;;
64907;SDS011;51412;52.236;5.188;2022-07-19T05:57:25;17.70;;;12.25;;
64907;SDS011;51412;52.236;5.188;2022-07-19T05:59:51;15.05;;;11.63;;
64907;SDS011;51412;52.236;5.188;2022-07-19T06:02:18;21.33;;;11.55;;
64907;SDS011;51412;52.236;5.188;2022-07-19T06:04:45;14.50;;;11.25;;
64907;SDS011;51412;52.236;5.188;2022-07-19T06:07:12;19.60;;;11.48;;
64907;SDS011;51412;52.236;5.188;2022-07-19T06:09:38;16.02;;;11.52;;
64907;SDS011;51412;52.236;5.188;2022-07-19T06:12:05;13.75;;;10.20;;
64907;SDS011;51412;52.236;5.188;2022-07-19T06:14:33;16.48;;;11.50;;
64907;SDS011;51412;52.236;5.188;2022-07-19T06:17:00;14.68;;;9.98;;
64907;SDS011;51412;52.236;5.188;2022-07-19T06:19:26;14.00;;;11.60;;
64907;SDS011;51412;52.236;5.188;2022-07-19T06:21:53;16.02;;;10.95;;
64907;SDS011;51412;52.236;5.188;2022-07-19T06:24:19;16.10;;;9.80;;
64907;SDS011;51412;52.236;5.188;2022-07-19T06:26:45;13.65;;;9.75;;
64907;SDS011;51412;52.236;5.188;2022-07-19T06:29:12;13.88;;;9.18;;
64907;SDS011;51412;52.236;5.188;2022-07-19T06:31:40;15.18;;;9.45;;
64907;SDS011;51412;52.236;5.188;2022-07-19T06:34:06;15.60;;;10.68;;
64907;SDS011;51412;52.236;5.188;2022-07-19T06:36:33;17.60;;;10.02;;
64907;SDS011;51412;52.236;5.188;2022-07-19T06:38:59;10.60;;;9.43;;
64907;SDS011;51412;52.236;5.188;2022-07-19T06:41:26;13.77;;;9.38;;
64907;SDS011;51412;52.236;5.188;2022-07-19T06:43:52;16.45;;;8.80;;
64907;SDS011;51412;52.236;5.188;2022-07-19T06:46:19;13.10;;;9.35;;
64907;SDS011;51412;52.236;5.188;2022-07-19T06:48:48;11.65;;;8.40;;
64907;SDS011;51412;52.236;5.188;2022-07-19T06:51:14;11.35;;;8.40;;
64907;SDS011;51412;52.236;5.188;2022-07-19T06:53:40;16.02;;;8.90;;
64907;SDS011;51412;52.236;5.188;2022-07-19T06:56:07;12.40;;;8.30;;
64907;SDS011;51412;52.236;5.188;2022-07-19T06:58:34;12.00;;;7.97;;
64907;SDS011;51412;52.236;5.188;2022-07-19T07:01:00;16.25;;;8.38;;
64907;SDS011;51412;52.236;5.188;2022-07-19T07:03:28;19.48;;;8.57;;
64907;SDS011;51412;52.236;5.188;2022-07-19T07:05:56;16.45;;;9.30;;
64907;SDS011;51412;52.236;5.188;2022-07-19T07:08:22;13.60;;;9.48;;
64907;SDS011;51412;52.236;5.188;2022-07-19T07:10:48;12.52;;;9.43;;
64907;SDS011;51412;52.236;5.188;2022-07-19T07:13:15;11.48;;;8.15;;
64907;SDS011;51412;52.236;5.188;2022-07-19T07:15:42;14.90;;;8.30;;
64907;SDS011;51412;52.236;5.188;2022-07-19T07:18:08;14.88;;;8.32;;
64907;SDS011;51412;52.236;5.188;2022-07-19T07:20:35;12.52;;;8.25;;
64907;SDS011;51412;52.236;5.188;2022-07-19T07:23:03;14.18;;;7.88;;
64907;SDS011;51412;52.236;5.188;2022-07-19T07:25:29;13.85;;;8.85;;
64907;SDS011;51412;52.236;5.188;2022-07-19T07:27:56;11.45;;;7.72;;
64907;SDS011;51412;52.236;5.188;2022-07-19T07:30:22;25.52;;;8.38;;
64907;SDS011;51412;52.236;5.188;2022-07-19T07:32:49;10.70;;;7.30;;
64907;SDS011;51412;52.236;5.188;2022-07-19T07:35:15;15.18;;;7.53;;
64907;SDS011;51412;52.236;5.188;2022-07-19T07:37:42;12.02;;;7.80;;
64907;SDS011;51412;52.236;5.188;2022-07-19T07:40:11;10.80;;;7.45;;
64907;SDS011;51412;52.236;5.188;2022-07-19T07:42:38;12.70;;;6.60;;
64907;SDS011;51412;52.236;5.188;2022-07-19T07:45:05;10.65;;;6.97;;
64907;SDS011;51412;52.236;5.188;2022-07-19T07:47:35;16.02;;;6.60;;
64907;SDS011;51412;52.236;5.188;2022-07-19T07:50:01;11.00;;;6.22;;
64907;SDS011;51412;52.236;5.188;2022-07-19T07:52:28;14.20;;;5.72;;
64907;SDS011;51412;52.236;5.188;2022-07-19T07:54:55;9.48;;;6.10;;
64907;SDS011;51412;52.236;5.188;2022-07-19T07:57:23;22.08;;;6.90;;
64907;SDS011;51412;52.236;5.188;2022-07-19T07:59:49;12.85;;;6.20;;
64907;SDS011;51412;52.236;5.188;2022-07-19T08:02:16;10.38;;;6.72;;
64907;SDS011;51412;52.236;5.188;2022-07-19T08:04:42;13.43;;;6.53;;
64907;SDS011;51412;52.236;5.188;2022-07-19T08:07:09;12.23;;;6.82;;
64907;SDS011;51412;52.236;5.188;2022-07-19T08:09:35;13.57;;;6.15;;
64907;SDS011;51412;52.236;5.188;2022-07-19T08:12:02;11.30;;;5.25;;
64907;SDS011;51412;52.236;5.188;2022-07-19T08:14:30;11.82;;;6.07;;
64907;SDS011;51412;52.236;5.188;2022-07-19T08:16:56;9.85;;;6.45;;
64907;SDS011;51412;52.236;5.188;2022-07-19T08:19:23;9.02;;;5.72;;
64907;SDS011;51412;52.236;5.188;2022-07-19T08:21:50;12.23;;;6.90;;
64907;SDS011;51412;52.236;5.188;2022-07-19T08:24:16;12.48;;;5.38;;
64907;SDS011;51412;52.236;5.188;2022-07-19T08:26:43;8.68;;;5.28;;
64907;SDS011;51412;52.236;5.188;2022-07-19T08:29:09;11.57;;;5.28;;
64907;SDS011;51412;52.236;5.188;2022-07-19T08:31:37;13.60;;;5.43;;
64907;SDS011;51412;52.236;5.188;2022-07-19T08:34:04;12.70;;;5.25;;
64907;SDS011;51412;52.236;5.188;2022-07-19T08:36:30;12.48;;;5.82;;
64907;SDS011;51412;52.236;5.188;2022-07-19T08:38:57;12.27;;;5.25;;
64907;SDS011;51412;52.236;5.188;2022-07-19T08:41:23;10.80;;;5.35;;
64907;SDS011;51412;52.236;5.188;2022-07-19T08:43:50;10.50;;;5.55;;
64907;SDS011;51412;52.236;5.188;2022-07-19T08:46:18;9.55;;;5.40;;
64907;SDS011;51412;52.236;5.188;2022-07-19T08:48:47;11.05;;;5.32;;
64907;SDS011;51412;52.236;5.188;2022-07-19T08:51:17;7.40;;;5.07;;
64907;SDS011;51412;52.236;5.188;2022-07-19T08:53:45;14.75;;;5.03;;
64907;SDS011;51412;52.236;5.188;2022-07-19T08:56:12;14.55;;;5.25;;
64907;SDS011;51412;52.236;5.188;2022-07-19T08:58:56;8.48;;;5.22;;
64907;SDS011;51412;52.236;5.188;2022-07-19T09:01:23;11.52;;;5.05;;
64907;SDS011;51412;52.236;5.188;2022-07-19T09:04:03;11.02;;;4.72;;
64907;SDS011;51412;52.236;5.188;2022-07-19T09:06:36;16.60;;;5.30;;
64907;SDS011;51412;52.236;5.188;2022-07-19T09:09:03;8.27;;;4.82;;
64907;SDS011;51412;52.236;5.188;2022-07-19T09:11:33;14.52;;;5.47;;
64907;SDS011;51412;52.236;5.188;2022-07-19T09:14:04;9.40;;;5.28;;
64907;SDS011;51412;52.236;5.188;2022-07-19T09:19:33;10.98;;;5.68;;
64907;SDS011;51412;52.236;5.188;2022-07-19T09:22:03;10.55;;;5.22;;
64907;SDS011;51412;52.236;5.188;2022-07-19T09:24:32;7.90;;;4.70;;
64907;SDS011;51412;52.236;5.188;2022-07-19T09:27:00;7.18;;;4.60;;
64907;SDS011;51412;52.236;5.188;2022-07-19T09:29:28;9.45;;;5.10;;
64907;SDS011;51412;52.236;5.188;2022-07-19T09:31:59;8.20;;;4.63;;
64907;SDS011;51412;52.236;5.188;2022-07-19T09:34:27;12.70;;;5.07;;
64907;SDS011;51412;52.236;5.188;2022-07-19T09:37:09;12.65;;;5.25;;
64907;SDS011;51412;52.236;5.188;2022-07-19T09:39:36;9.07;;;4.60;;
64907;SDS011;51412;52.236;5.188;2022-07-19T09:42:06;6.95;;;5.20;;
64907;SDS011;51412;52.236;5.188;2022-07-19T09:44:32;6.95;;;4.47;;
64907;SDS011;51412;52.236;5.188;2022-07-19T09:46:59;11.45;;;5.50;;
64907;SDS011;51412;52.236;5.188;2022-07-19T09:49:25;10.98;;;4.80;;
64907;SDS011;51412;52.236;5.188;2022-07-19T09:51:52;9.95;;;5.03;;
64907;SDS011;51412;52.236;5.188;2022-07-19T09:54:22;10.60;;;5.10;;
64907;SDS011;51412;52.236;5.188;2022-07-19T09:56:53;15.07;;;6.18;;
64907;SDS011;51412;52.236;5.188;2022-07-19T09:59:21;14.55;;;5.40;;
64907;SDS011;51412;52.236;5.188;2022-07-19T10:01:49;11.45;;;5.50;;
64907;SDS011;51412;52.236;5.188;2022-07-19T10:04:20;15.68;;;5.47;;
64907;SDS011;51412;52.236;5.188;2022-07-19T10:06:48;14.45;;;5.45;;
64907;SDS011;51412;52.236;5.188;2022-07-19T10:09:16;14.45;;;5.47;;
64907;SDS011;51412;52.236;5.188;2022-07-19T10:11:46;7.10;;;5.00;;
64907;SDS011;51412;52.236;5.188;2022-07-19T10:14:12;8.02;;;5.13;;
64907;SDS011;51412;52.236;5.188;2022-07-19T10:16:45;13.13;;;5.57;;
64907;SDS011;51412;52.236;5.188;2022-07-19T10:19:22;10.13;;;4.90;;
64907;SDS011;51412;52.236;5.188;2022-07-19T10:21:56;10.15;;;5.00;;
64907;SDS011;51412;52.236;5.188;2022-07-19T10:27:38;13.02;;;4.50;;
64907;SDS011;51412;52.236;5.188;2022-07-19T10:30:19;13.40;;;5.20;;
64907;SDS011;51412;52.236;5.188;2022-07-19T10:32:49;10.88;;;4.78;;
64907;SDS011;51412;52.236;5.188;2022-07-19T10:35:18;11.23;;;5.40;;
64907;SDS011;51412;52.236;5.188;2022-07-19T10:37:47;8.45;;;4.80;;
64907;SDS011;51412;52.236;5.188;2022-07-19T10:40:26;10.85;;;4.47;;
64907;SDS011;51412;52.236;5.188;2022-07-19T10:43:05;11.13;;;5.15;;
64907;SDS011;51412;52.236;5.188;2022-07-19T10:45:32;5.97;;;4.70;;
64907;SDS011;51412;52.236;5.188;2022-07-19T10:48:01;9.43;;;4.53;;
64907;SDS011;51412;52.236;5.188;2022-07-19T10:50:41;7.18;;;4.15;;
64907;SDS011;51412;52.236;5.188;2022-07-19T10:56:19;8.10;;;4.75;;
64907;SDS011;51412;52.236;5.188;2022-07-19T10:58:51;6.72;;;4.47;;
64907;SDS011;51412;52.236;5.188;2022-07-19T11:01:19;8.27;;;4.95;;
64907;SDS011;51412;52.236;5.188;2022-07-19T11:03:47;7.50;;;4.22;;
64907;SDS011;51412;52.236;5.188;2022-07-19T11:06:18;10.55;;;5.10;;
64907;SDS011;51412;52.236;5.188;2022-07-19T11:11:14;6.82;;;4.40;;
64907;SDS011;51412;52.236;5.188;2022-07-19T11:13:43;8.02;;;4.55;;
64907;SDS011;51412;52.236;5.188;2022-07-19T11:16:13;12.13;;;4.32;;
64907;SDS011;51412;52.236;5.188;2022-07-19T11:18:41;6.80;;;4.32;;
64907;SDS011;51412;52.236;5.188;2022-07-19T11:21:08;7.57;;;4.03;;
64907;SDS011;51412;52.236;5.188;2022-07-19T11:23:37;8.48;;;3.90;;
64907;SDS011;51412;52.236;5.188;2022-07-19T11:26:05;12.73;;;4.00;;
64907;SDS011;51412;52.236;5.188;2022-07-19T11:28:33;5.18;;;4.03;;
64907;SDS011;51412;52.236;5.188;2022-07-19T11:30:59;5.53;;;4.05;;
64907;SDS011;51412;52.236;5.188;2022-07-19T11:33:27;9.25;;;4.10;;
64907;SDS011;51412;52.236;5.188;2022-07-19T11:35:55;7.85;;;4.28;;
64907;SDS011;51412;52.236;5.188;2022-07-19T11:38:22;5.95;;;4.18;;
64907;SDS011;51412;52.236;5.188;2022-07-19T11:40:48;10.30;;;4.40;;
64907;SDS011;51412;52.236;5.188;2022-07-19T11:43:15;8.05;;;4.53;;
64907;SDS011;51412;52.236;5.188;2022-07-19T11:45:43;6.47;;;4.20;;
64907;SDS011;51412;52.236;5.188;2022-07-19T11:48:11;7.97;;;4.43;;
64907;SDS011;51412;52.236;5.188;2022-07-19T11:50:39;7.43;;;4.10;;
64907;SDS011;51412;52.236;5.188;2022-07-19T11:53:06;7.50;;;4.25;;
64907;SDS011;51412;52.236;5.188;2022-07-19T11:55:34;6.40;;;4.00;;
64907;SDS011;51412;52.236;5.188;2022-07-19T11:58:05;7.53;;;3.35;;
64907;SDS011;51412;52.236;5.188;2022-07-19T12:00:32;11.43;;;3.78;;
64907;SDS011;51412;52.236;5.188;2022-07-19T12:03:00;6.20;;;3.92;;
64907;SDS011;51412;52.236;5.188;2022-07-19T12:05:31;6.68;;;3.70;;
64907;SDS011;51412;52.236;5.188;2022-07-19T12:08:00;8.40;;;3.95;;
64907;SDS011;51412;52.236;5.188;2022-07-19T12:10:32;8.02;;;3.88;;
64907;SDS011;51412;52.236;5.188;2022-07-19T12:13:02;8.90;;;3.47;;
64907;SDS011;51412;52.236;5.188;2022-07-19T12:15:46;5.93;;;3.72;;
64907;SDS011;51412;52.236;5.188;2022-07-19T12:18:15;6.13;;;3.50;;
64907;SDS011;51412;52.236;5.188;2022-07-19T12:20:43;7.13;;;3.90;;
64907;SDS011;51412;52.236;5.188;2022-07-19T12:23:12;6.63;;;4.00;;
64907;SDS011;51412;52.236;5.188;2022-07-19T12:25:40;7.97;;;4.07;;
64907;SDS011;51412;52.236;5.188;2022-07-19T12:28:07;7.75;;;3.90;;
64907;SDS011;51412;52.236;5.188;2022-07-19T12:30:34;7.68;;;3.47;;
64907;SDS011;51412;52.236;5.188;2022-07-19T12:33:07;9.15;;;3.63;;
64907;SDS011;51412;52.236;5.188;2022-07-19T12:35:41;7.20;;;4.35;;
64907;SDS011;51412;52.236;5.188;2022-07-19T12:38:09;8.27;;;4.43;;
64907;SDS011;51412;52.236;5.188;2022-07-19T12:40:38;6.63;;;4.50;;
64907;SDS011;51412;52.236;5.188;2022-07-19T12:43:05;8.30;;;4.13;;
64907;SDS011;51412;52.236;5.188;2022-07-19T12:45:35;6.75;;;3.80;;
64907;SDS011;51412;52.236;5.188;2022-07-19T12:48:04;7.47;;;4.13;;
64907;SDS011;51412;52.236;5.188;2022-07-19T12:50:33;8.10;;;4.07;;
64907;SDS011;51412;52.236;5.188;2022-07-19T12:53:01;9.30;;;4.50;;
64907;SDS011;51412;52.236;5.188;2022-07-19T12:55:29;9.05;;;4.95;;
64907;SDS011;51412;52.236;5.188;2022-07-19T12:57:59;8.63;;;4.68;;
64907;SDS011;51412;52.236;5.188;2022-07-19T13:00:26;5.32;;;4.28;;
64907;SDS011;51412;52.236;5.188;2022-07-19T13:02:55;7.88;;;4.57;;
64907;SDS011;51412;52.236;5.188;2022-07-19T13:05:24;8.25;;;4.03;;
64907;SDS011;51412;52.236;5.188;2022-07-19T13:07:51;10.02;;;4.45;;
64907;SDS011;51412;52.236;5.188;2022-07-19T13:10:18;8.80;;;4.53;;
64907;SDS011;51412;52.236;5.188;2022-07-19T13:12:44;7.47;;;3.90;;
64907;SDS011;51412;52.236;5.188;2022-07-19T13:15:13;9.02;;;4.28;;
64907;SDS011;51412;52.236;5.188;2022-07-19T13:17:40;8.23;;;4.00;;
64907;SDS011;51412;52.236;5.188;2022-07-19T13:20:07;8.95;;;4.25;;
64907;SDS011;51412;52.236;5.188;2022-07-19T13:22:35;7.95;;;4.30;;
64907;SDS011;51412;52.236;5.188;2022-07-19T13:25:03;10.82;;;4.30;;
64907;SDS011;51412;52.236;5.188;2022-07-19T13:27:31;7.18;;;4.30;;
64907;SDS011;51412;52.236;5.188;2022-07-19T13:29:57;6.20;;;4.10;;
64907;SDS011;51412;52.236;5.188;2022-07-19T13:32:25;6.25;;;4.00;;
64907;SDS011;51412;52.236;5.188;2022-07-19T13:34:52;6.55;;;4.03;;
64907;SDS011;51412;52.236;5.188;2022-07-19T13:37:18;13.73;;;4.70;;
64907;SDS011;51412;52.236;5.188;2022-07-19T13:39:45;8.93;;;4.80;;
64907;SDS011;51412;52.236;5.188;2022-07-19T13:42:11;8.25;;;4.70;;
64907;SDS011;51412;52.236;5.188;2022-07-19T13:44:38;6.90;;;3.60;;
64907;SDS011;51412;52.236;5.188;2022-07-19T13:47:04;8.15;;;4.97;;
64907;SDS011;51412;52.236;5.188;2022-07-19T13:49:32;6.72;;;4.40;;
64907;SDS011;51412;52.236;5.188;2022-07-19T13:51:59;9.52;;;4.20;;
64907;SDS011;51412;52.236;5.188;2022-07-19T13:54:25;5.57;;;3.92;;
64907;SDS011;51412;52.236;5.188;2022-07-19T13:56:52;11.45;;;5.18;;
64907;SDS011;51412;52.236;5.188;2022-07-19T13:59:18;9.10;;;5.35;;
64907;SDS011;51412;52.236;5.188;2022-07-19T14:01:46;10.52;;;4.45;;
64907;SDS011;51412;52.236;5.188;2022-07-19T14:04:12;7.00;;;4.35;;
64907;SDS011;51412;52.236;5.188;2022-07-19T14:06:40;9.10;;;5.00;;
64907;SDS011;51412;52.236;5.188;2022-07-19T14:09:07;6.57;;;4.65;;
64907;SDS011;51412;52.236;5.188;2022-07-19T14:11:34;6.22;;;4.30;;
64907;SDS011;51412;52.236;5.188;2022-07-19T14:14:01;7.13;;;4.47;;
64907;SDS011;51412;52.236;5.188;2022-07-19T14:16:27;7.25;;;4.40;;
64907;SDS011;51412;52.236;5.188;2022-07-19T14:18:54;9.70;;;4.78;;
64907;SDS011;51412;52.236;5.188;2022-07-19T14:21:21;10.48;;;4.78;;
64907;SDS011;51412;52.236;5.188;2022-07-19T14:23:49;6.80;;;4.80;;
64907;SDS011;51412;52.236;5.188;2022-07-19T14:26:15;8.43;;;5.20;;
64907;SDS011;51412;52.236;5.188;2022-07-19T14:28:42;7.10;;;4.25;;
64907;SDS011;51412;52.236;5.188;2022-07-19T14:31:08;5.75;;;4.63;;
64907;SDS011;51412;52.236;5.188;2022-07-19T14:33:40;7.75;;;5.00;;
64907;SDS011;51412;52.236;5.188;2022-07-19T14:36:07;9.55;;;4.95;;
64907;SDS011;51412;52.236;5.188;2022-07-19T14:38:34;7.68;;;5.03;;
64907;SDS011;51412;52.236;5.188;2022-07-19T14:41:02;9.10;;;4.97;;
64907;SDS011;51412;52.236;5.188;2022-07-19T14:43:28;6.90;;;4.43;;
64907;SDS011;51412;52.236;5.188;2022-07-19T14:45:55;7.32;;;5.10;;
64907;SDS011;51412;52.236;5.188;2022-07-19T14:48:21;7.47;;;4.75;;
64907;SDS011;51412;52.236;5.188;2022-07-19T14:50:48;7.93;;;4.80;;